sensor_id;sensor_type;location;lat;lon;timestamp;P1;durP1;ratioP1;P2;durP2;ratioP2
51304;SDS011;37392;50.964;6.952;2023-06-26T00:01:23;12.88;;;6.88;;
51304;SDS011;37392;50.964;6.952;2023-06-26T00:03:48;11.02;;;7.38;;
51304;SDS011;37392;50.964;6.952;2023-06-26T00:06:14;9.52;;;6.55;;
51304;SDS011;37392;50.964;6.952;2023-06-26T00:08:39;8.80;;;6.22;;
51304;SDS011;37392;50.964;6.952;2023-06-26T00:11:05;13.63;;;6.13;;
51304;SDS011;37392;50.964;6.952;2023-06-26T00:13:31;8.05;;;5.72;;
51304;SDS011;37392;50.964;6.952;2023-06-26T00:15:56;10.95;;;7.47;;
51304;SDS011;37392;50.964;6.952;2023-06-26T00:18:22;12.63;;;6.03;;
51304;SDS011;37392;50.964;6.952;2023-06-26T00:20:48;11.75;;;7.13;;
51304;SDS011;37392;50.964;6.952;2023-06-26T00:23:16;8.73;;;6.65;;
51304;SDS011;37392;50.964;6.952;2023-06-26T00:25:42;8.88;;;6.68;;
51304;SDS011;37392;50.964;6.952;2023-06-26T00:28:08;16.55;;;6.35;;
51304;SDS011;37392;50.964;6.952;2023-06-26T00:30:34;10.63;;;6.82;;
51304;SDS011;37392;50.964;6.952;2023-06-26T00:33:00;10.90;;;6.95;;
51304;SDS011;37392;50.964;6.952;2023-06-26T00:35:26;9.75;;;6.55;;
51304;SDS011;37392;50.964;6.952;2023-06-26T00:37:52;10.48;;;7.30;;
51304;SDS011;37392;50.964;6.952;2023-06-26T00:40:17;10.65;;;6.47;;
51304;SDS011;37392;50.964;6.952;2023-06-26T00:42:43;10.52;;;6.82;;
51304;SDS011;37392;50.964;6.952;2023-06-26T00:45:09;9.70;;;6.28;;
51304;SDS011;37392;50.964;6.952;2023-06-26T00:47:34;12.65;;;7.25;;
51304;SDS011;37392;50.964;6.952;2023-06-26T00:50:00;11.80;;;6.22;;
51304;SDS011;37392;50.964;6.952;2023-06-26T00:52:26;14.32;;;6.93;;
51304;SDS011;37392;50.964;6.952;2023-06-26T00:54:52;11.35;;;7.13;;
51304;SDS011;37392;50.964;6.952;2023-06-26T00:57:18;10.05;;;7.53;;
51304;SDS011;37392;50.964;6.952;2023-06-26T00:59:43;11.50;;;7.43;;
51304;SDS011;37392;50.964;6.952;2023-06-26T01:02:09;9.02;;;6.35;;
51304;SDS011;37392;50.964;6.952;2023-06-26T01:04:35;11.68;;;7.50;;
51304;SDS011;37392;50.964;6.952;2023-06-26T01:07:01;11.68;;;6.40;;
51304;SDS011;37392;50.964;6.952;2023-06-26T01:09:28;8.68;;;6.47;;
51304;SDS011;37392;50.964;6.952;2023-06-26T01:11:54;15.65;;;6.57;;
51304;SDS011;37392;50.964;6.952;2023-06-26T01:14:20;12.43;;;6.88;;
51304;SDS011;37392;50.964;6.952;2023-06-26T01:16:45;9.55;;;6.65;;
51304;SDS011;37392;50.964;6.952;2023-06-26T01:19:18;15.60;;;6.75;;
51304;SDS011;37392;50.964;6.952;2023-06-26T01:21:54;11.32;;;6.45;;
51304;SDS011;37392;50.964;6.952;2023-06-26T01:24:25;13.32;;;7.85;;
51304;SDS011;37392;50.964;6.952;2023-06-26T01:27:02;11.00;;;7.13;;
51304;SDS011;37392;50.964;6.952;2023-06-26T01:29:30;9.57;;;6.63;;
51304;SDS011;37392;50.964;6.952;2023-06-26T01:31:57;10.30;;;6.85;;
51304;SDS011;37392;50.964;6.952;2023-06-26T01:34:24;13.23;;;6.40;;
51304;SDS011;37392;50.964;6.952;2023-06-26T01:36:50;16.27;;;7.07;;
51304;SDS011;37392;50.964;6.952;2023-06-26T01:39:16;13.13;;;7.63;;
51304;SDS011;37392;50.964;6.952;2023-06-26T01:41:43;9.07;;;6.80;;
51304;SDS011;37392;50.964;6.952;2023-06-26T01:47:05;16.52;;;6.95;;
51304;SDS011;37392;50.964;6.952;2023-06-26T01:49:33;10.90;;;7.35;;
51304;SDS011;37392;50.964;6.952;2023-06-26T01:55:02;9.90;;;7.35;;
51304;SDS011;37392;50.964;6.952;2023-06-26T01:57:37;13.52;;;7.25;;
51304;SDS011;37392;50.964;6.952;2023-06-26T02:00:04;9.90;;;6.85;;
51304;SDS011;37392;50.964;6.952;2023-06-26T02:02:35;11.43;;;6.78;;
51304;SDS011;37392;50.964;6.952;2023-06-26T02:05:01;10.15;;;6.38;;
51304;SDS011;37392;50.964;6.952;2023-06-26T02:07:27;8.50;;;7.07;;
51304;SDS011;37392;50.964;6.952;2023-06-26T02:09:52;11.35;;;7.07;;
51304;SDS011;37392;50.964;6.952;2023-06-26T02:12:18;11.65;;;6.78;;
51304;SDS011;37392;50.964;6.952;2023-06-26T02:14:44;11.65;;;7.65;;
51304;SDS011;37392;50.964;6.952;2023-06-26T02:17:09;8.07;;;6.68;;
51304;SDS011;37392;50.964;6.952;2023-06-26T02:19:35;11.20;;;7.47;;
51304;SDS011;37392;50.964;6.952;2023-06-26T02:22:01;11.52;;;7.28;;
51304;SDS011;37392;50.964;6.952;2023-06-26T02:24:26;13.85;;;7.80;;
51304;SDS011;37392;50.964;6.952;2023-06-26T02:26:55;13.20;;;7.22;;
51304;SDS011;37392;50.964;6.952;2023-06-26T02:29:22;14.15;;;7.53;;
51304;SDS011;37392;50.964;6.952;2023-06-26T02:31:48;11.15;;;7.88;;
51304;SDS011;37392;50.964;6.952;2023-06-26T02:34:14;11.45;;;7.57;;
51304;SDS011;37392;50.964;6.952;2023-06-26T02:36:39;17.50;;;9.73;;
51304;SDS011;37392;50.964;6.952;2023-06-26T02:39:05;14.30;;;7.57;;
51304;SDS011;37392;50.964;6.952;2023-06-26T02:41:31;9.30;;;7.00;;
51304;SDS011;37392;50.964;6.952;2023-06-26T02:43:56;11.55;;;7.18;;
51304;SDS011;37392;50.964;6.952;2023-06-26T02:46:22;11.57;;;7.53;;
51304;SDS011;37392;50.964;6.952;2023-06-26T02:48:47;11.40;;;7.55;;
51304;SDS011;37392;50.964;6.952;2023-06-26T02:51:12;11.48;;;7.28;;
51304;SDS011;37392;50.964;6.952;2023-06-26T02:53:38;14.32;;;7.25;;
51304;SDS011;37392;50.964;6.952;2023-06-26T02:56:04;12.52;;;8.20;;
51304;SDS011;37392;50.964;6.952;2023-06-26T02:58:30;10.75;;;7.60;;
51304;SDS011;37392;50.964;6.952;2023-06-26T03:00:55;12.02;;;6.82;;
51304;SDS011;37392;50.964;6.952;2023-06-26T03:03:21;12.93;;;8.77;;
51304;SDS011;37392;50.964;6.952;2023-06-26T03:05:47;11.70;;;8.60;;
51304;SDS011;37392;50.964;6.952;2023-06-26T03:08:12;13.40;;;6.68;;
51304;SDS011;37392;50.964;6.952;2023-06-26T03:10:38;8.95;;;6.50;;
51304;SDS011;37392;50.964;6.952;2023-06-26T03:13:03;8.98;;;6.47;;
51304;SDS011;37392;50.964;6.952;2023-06-26T03:15:29;7.70;;;6.00;;
51304;SDS011;37392;50.964;6.952;2023-06-26T03:17:54;10.85;;;7.15;;
51304;SDS011;37392;50.964;6.952;2023-06-26T03:20:20;8.00;;;5.90;;
51304;SDS011;37392;50.964;6.952;2023-06-26T03:22:45;12.25;;;7.00;;
51304;SDS011;37392;50.964;6.952;2023-06-26T03:25:11;9.82;;;6.53;;
51304;SDS011;37392;50.964;6.952;2023-06-26T03:27:36;13.10;;;8.65;;
51304;SDS011;37392;50.964;6.952;2023-06-26T03:30:02;8.00;;;5.80;;
51304;SDS011;37392;50.964;6.952;2023-06-26T03:32:28;10.52;;;6.88;;
51304;SDS011;37392;50.964;6.952;2023-06-26T03:34:53;9.27;;;6.57;;
51304;SDS011;37392;50.964;6.952;2023-06-26T03:37:19;9.48;;;6.35;;
51304;SDS011;37392;50.964;6.952;2023-06-26T03:39:44;10.77;;;6.25;;
51304;SDS011;37392;50.964;6.952;2023-06-26T03:42:10;10.23;;;6.63;;
51304;SDS011;37392;50.964;6.952;2023-06-26T03:44:35;8.20;;;6.05;;
51304;SDS011;37392;50.964;6.952;2023-06-26T03:47:01;10.95;;;6.80;;
51304;SDS011;37392;50.964;6.952;2023-06-26T03:49:26;8.98;;;6.18;;
51304;SDS011;37392;50.964;6.952;2023-06-26T03:51:52;10.23;;;6.10;;
51304;SDS011;37392;50.964;6.952;2023-06-26T03:54:18;10.57;;;5.70;;
51304;SDS011;37392;50.964;6.952;2023-06-26T03:56:43;13.00;;;6.43;;
51304;SDS011;37392;50.964;6.952;2023-06-26T03:59:09;16.67;;;7.05;;
51304;SDS011;37392;50.964;6.952;2023-06-26T04:01:35;7.65;;;5.43;;
51304;SDS011;37392;50.964;6.952;2023-06-26T04:04:02;14.32;;;5.80;;
51304;SDS011;37392;50.964;6.952;2023-06-26T04:06:28;7.47;;;5.18;;
51304;SDS011;37392;50.964;6.952;2023-06-26T04:08:56;10.95;;;5.35;;
51304;SDS011;37392;50.964;6.952;2023-06-26T04:11:22;7.40;;;5.03;;
51304;SDS011;37392;50.964;6.952;2023-06-26T04:13:49;12.77;;;7.05;;
51304;SDS011;37392;50.964;6.952;2023-06-26T04:16:14;10.32;;;5.10;;
51304;SDS011;37392;50.964;6.952;2023-06-26T04:18:40;8.68;;;5.55;;
51304;SDS011;37392;50.964;6.952;2023-06-26T04:21:10;12.13;;;5.57;;
51304;SDS011;37392;50.964;6.952;2023-06-26T04:23:38;10.00;;;5.68;;
51304;SDS011;37392;50.964;6.952;2023-06-26T04:26:05;9.02;;;5.70;;
51304;SDS011;37392;50.964;6.952;2023-06-26T04:28:34;11.20;;;5.55;;
51304;SDS011;37392;50.964;6.952;2023-06-26T04:31:01;9.60;;;5.15;;
51304;SDS011;37392;50.964;6.952;2023-06-26T04:33:28;8.00;;;6.32;;
51304;SDS011;37392;50.964;6.952;2023-06-26T04:35:54;16.20;;;6.47;;
51304;SDS011;37392;50.964;6.952;2023-06-26T04:38:20;7.43;;;5.05;;
51304;SDS011;37392;50.964;6.952;2023-06-26T04:40:47;7.07;;;4.90;;
51304;SDS011;37392;50.964;6.952;2023-06-26T04:43:13;6.78;;;4.82;;
51304;SDS011;37392;50.964;6.952;2023-06-26T04:45:39;8.52;;;4.85;;
51304;SDS011;37392;50.964;6.952;2023-06-26T04:48:04;9.07;;;5.20;;
51304;SDS011;37392;50.964;6.952;2023-06-26T04:50:30;20.65;;;4.97;;
51304;SDS011;37392;50.964;6.952;2023-06-26T04:52:56;12.07;;;5.07;;
51304;SDS011;37392;50.964;6.952;2023-06-26T04:55:25;9.82;;;5.05;;
51304;SDS011;37392;50.964;6.952;2023-06-26T04:57:51;8.85;;;4.40;;
51304;SDS011;37392;50.964;6.952;2023-06-26T05:00:17;20.17;;;6.10;;
51304;SDS011;37392;50.964;6.952;2023-06-26T05:02:43;8.00;;;4.47;;
51304;SDS011;37392;50.964;6.952;2023-06-26T05:05:08;9.45;;;5.45;;
51304;SDS011;37392;50.964;6.952;2023-06-26T05:07:35;6.80;;;3.90;;
51304;SDS011;37392;50.964;6.952;2023-06-26T05:10:01;9.18;;;5.45;;
51304;SDS011;37392;50.964;6.952;2023-06-26T05:12:27;7.05;;;4.88;;
51304;SDS011;37392;50.964;6.952;2023-06-26T05:14:53;10.82;;;4.75;;
51304;SDS011;37392;50.964;6.952;2023-06-26T05:17:18;8.70;;;5.13;;
51304;SDS011;37392;50.964;6.952;2023-06-26T05:19:44;17.38;;;5.68;;
51304;SDS011;37392;50.964;6.952;2023-06-26T05:22:10;9.35;;;4.68;;
51304;SDS011;37392;50.964;6.952;2023-06-26T05:24:38;8.52;;;4.50;;
51304;SDS011;37392;50.964;6.952;2023-06-26T05:27:04;6.80;;;4.55;;
51304;SDS011;37392;50.964;6.952;2023-06-26T05:29:31;8.10;;;5.13;;
51304;SDS011;37392;50.964;6.952;2023-06-26T05:31:57;9.63;;;5.30;;
51304;SDS011;37392;50.964;6.952;2023-06-26T05:34:24;12.60;;;4.53;;
51304;SDS011;37392;50.964;6.952;2023-06-26T05:36:51;13.75;;;6.03;;
51304;SDS011;37392;50.964;6.952;2023-06-26T05:39:17;14.73;;;6.45;;
51304;SDS011;37392;50.964;6.952;2023-06-26T05:41:44;10.05;;;5.15;;
51304;SDS011;37392;50.964;6.952;2023-06-26T05:44:10;9.05;;;4.35;;
51304;SDS011;37392;50.964;6.952;2023-06-26T05:46:35;17.63;;;5.15;;
51304;SDS011;37392;50.964;6.952;2023-06-26T05:49:01;12.18;;;5.15;;
51304;SDS011;37392;50.964;6.952;2023-06-26T05:51:27;10.48;;;5.05;;
51304;SDS011;37392;50.964;6.952;2023-06-26T05:53:54;13.30;;;4.43;;
51304;SDS011;37392;50.964;6.952;2023-06-26T05:56:19;10.40;;;4.72;;
51304;SDS011;37392;50.964;6.952;2023-06-26T05:58:46;22.85;;;5.20;;
51304;SDS011;37392;50.964;6.952;2023-06-26T06:01:12;12.07;;;4.13;;
51304;SDS011;37392;50.964;6.952;2023-06-26T06:03:38;21.65;;;5.30;;
51304;SDS011;37392;50.964;6.952;2023-06-26T06:06:04;13.52;;;4.40;;
51304;SDS011;37392;50.964;6.952;2023-06-26T06:08:30;18.33;;;4.32;;
51304;SDS011;37392;50.964;6.952;2023-06-26T06:10:56;15.27;;;5.72;;
51304;SDS011;37392;50.964;6.952;2023-06-26T06:13:21;12.98;;;4.57;;
51304;SDS011;37392;50.964;6.952;2023-06-26T06:15:47;12.43;;;5.10;;
51304;SDS011;37392;50.964;6.952;2023-06-26T06:18:12;11.98;;;4.75;;
51304;SDS011;37392;50.964;6.952;2023-06-26T06:20:38;13.98;;;4.72;;
51304;SDS011;37392;50.964;6.952;2023-06-26T06:23:03;7.47;;;4.05;;
51304;SDS011;37392;50.964;6.952;2023-06-26T06:25:29;17.10;;;4.88;;
51304;SDS011;37392;50.964;6.952;2023-06-26T06:27:55;12.02;;;4.47;;
51304;SDS011;37392;50.964;6.952;2023-06-26T06:30:21;17.88;;;5.20;;
51304;SDS011;37392;50.964;6.952;2023-06-26T06:32:47;17.45;;;4.85;;
51304;SDS011;37392;50.964;6.952;2023-06-26T06:35:15;27.05;;;4.82;;
51304;SDS011;37392;50.964;6.952;2023-06-26T06:37:42;23.90;;;5.05;;
51304;SDS011;37392;50.964;6.952;2023-06-26T06:40:11;9.52;;;3.92;;
51304;SDS011;37392;50.964;6.952;2023-06-26T06:42:37;7.78;;;3.95;;
51304;SDS011;37392;50.964;6.952;2023-06-26T06:45:03;13.90;;;4.43;;
51304;SDS011;37392;50.964;6.952;2023-06-26T06:47:30;21.67;;;5.63;;
51304;SDS011;37392;50.964;6.952;2023-06-26T06:49:57;18.35;;;5.72;;
51304;SDS011;37392;50.964;6.952;2023-06-26T06:52:22;13.95;;;4.40;;
51304;SDS011;37392;50.964;6.952;2023-06-26T06:54:51;20.27;;;4.97;;
51304;SDS011;37392;50.964;6.952;2023-06-26T06:57:24;14.00;;;4.65;;
51304;SDS011;37392;50.964;6.952;2023-06-26T06:59:50;10.77;;;4.60;;
51304;SDS011;37392;50.964;6.952;2023-06-26T07:02:18;10.90;;;4.53;;
51304;SDS011;37392;50.964;6.952;2023-06-26T07:04:44;10.20;;;4.10;;
51304;SDS011;37392;50.964;6.952;2023-06-26T07:07:11;14.82;;;4.75;;
51304;SDS011;37392;50.964;6.952;2023-06-26T07:09:38;6.85;;;3.25;;
51304;SDS011;37392;50.964;6.952;2023-06-26T07:12:04;30.40;;;4.25;;
51304;SDS011;37392;50.964;6.952;2023-06-26T07:14:30;10.10;;;4.18;;
51304;SDS011;37392;50.964;6.952;2023-06-26T07:16:56;20.33;;;3.97;;
51304;SDS011;37392;50.964;6.952;2023-06-26T07:19:21;9.98;;;4.82;;
51304;SDS011;37392;50.964;6.952;2023-06-26T07:21:47;13.27;;;4.25;;
51304;SDS011;37392;50.964;6.952;2023-06-26T07:24:13;10.52;;;3.75;;
51304;SDS011;37392;50.964;6.952;2023-06-26T07:26:38;13.05;;;3.53;;
51304;SDS011;37392;50.964;6.952;2023-06-26T07:29:05;10.80;;;3.50;;
51304;SDS011;37392;50.964;6.952;2023-06-26T07:31:30;11.52;;;3.90;;
51304;SDS011;37392;50.964;6.952;2023-06-26T07:33:56;11.10;;;4.43;;
51304;SDS011;37392;50.964;6.952;2023-06-26T07:36:21;11.60;;;3.88;;
51304;SDS011;37392;50.964;6.952;2023-06-26T07:38:47;24.55;;;4.40;;
51304;SDS011;37392;50.964;6.952;2023-06-26T07:41:13;17.73;;;4.40;;
51304;SDS011;37392;50.964;6.952;2023-06-26T07:43:38;22.00;;;5.10;;
51304;SDS011;37392;50.964;6.952;2023-06-26T07:46:04;20.45;;;4.53;;
51304;SDS011;37392;50.964;6.952;2023-06-26T07:48:30;13.98;;;3.58;;
51304;SDS011;37392;50.964;6.952;2023-06-26T07:50:55;19.75;;;3.85;;
51304;SDS011;37392;50.964;6.952;2023-06-26T07:53:21;21.58;;;5.22;;
51304;SDS011;37392;50.964;6.952;2023-06-26T07:55:46;12.65;;;3.25;;
51304;SDS011;37392;50.964;6.952;2023-06-26T07:58:12;13.18;;;3.55;;
51304;SDS011;37392;50.964;6.952;2023-06-26T08:00:37;10.40;;;3.95;;
51304;SDS011;37392;50.964;6.952;2023-06-26T08:03:03;11.68;;;3.58;;
51304;SDS011;37392;50.964;6.952;2023-06-26T08:05:29;10.80;;;5.00;;
51304;SDS011;37392;50.964;6.952;2023-06-26T08:07:54;12.48;;;3.47;;
51304;SDS011;37392;50.964;6.952;2023-06-26T08:10:20;12.10;;;3.38;;
51304;SDS011;37392;50.964;6.952;2023-06-26T08:12:46;13.43;;;4.13;;
51304;SDS011;37392;50.964;6.952;2023-06-26T08:15:12;8.23;;;3.97;;
51304;SDS011;37392;50.964;6.952;2023-06-26T08:17:38;12.77;;;3.97;;
51304;SDS011;37392;50.964;6.952;2023-06-26T08:20:04;13.10;;;3.90;;
51304;SDS011;37392;50.964;6.952;2023-06-26T08:22:32;12.73;;;3.70;;
51304;SDS011;37392;50.964;6.952;2023-06-26T08:24:58;11.30;;;3.65;;
51304;SDS011;37392;50.964;6.952;2023-06-26T08:27:24;12.15;;;4.53;;
51304;SDS011;37392;50.964;6.952;2023-06-26T08:29:50;8.68;;;3.90;;
51304;SDS011;37392;50.964;6.952;2023-06-26T08:32:15;15.05;;;4.18;;
51304;SDS011;37392;50.964;6.952;2023-06-26T08:34:41;11.30;;;4.35;;
51304;SDS011;37392;50.964;6.952;2023-06-26T08:37:06;9.60;;;3.47;;
51304;SDS011;37392;50.964;6.952;2023-06-26T08:39:34;14.13;;;4.72;;
51304;SDS011;37392;50.964;6.952;2023-06-26T08:42:00;19.45;;;4.20;;
51304;SDS011;37392;50.964;6.952;2023-06-26T08:44:25;8.80;;;3.90;;
51304;SDS011;37392;50.964;6.952;2023-06-26T08:46:51;9.90;;;3.70;;
51304;SDS011;37392;50.964;6.952;2023-06-26T08:49:21;12.55;;;3.70;;
51304;SDS011;37392;50.964;6.952;2023-06-26T08:54:50;14.95;;;4.30;;
51304;SDS011;37392;50.964;6.952;2023-06-26T08:57:23;14.43;;;3.80;;
51304;SDS011;37392;50.964;6.952;2023-06-26T08:59:51;14.80;;;4.15;;
51304;SDS011;37392;50.964;6.952;2023-06-26T09:02:17;9.40;;;3.70;;
51304;SDS011;37392;50.964;6.952;2023-06-26T09:04:45;10.90;;;3.42;;
51304;SDS011;37392;50.964;6.952;2023-06-26T09:07:14;8.35;;;4.15;;
51304;SDS011;37392;50.964;6.952;2023-06-26T09:09:40;19.60;;;3.80;;
51304;SDS011;37392;50.964;6.952;2023-06-26T09:12:05;14.68;;;4.18;;
51304;SDS011;37392;50.964;6.952;2023-06-26T09:14:31;13.75;;;3.20;;
51304;SDS011;37392;50.964;6.952;2023-06-26T09:16:57;22.17;;;4.63;;
51304;SDS011;37392;50.964;6.952;2023-06-26T09:19:23;11.80;;;3.47;;
51304;SDS011;37392;50.964;6.952;2023-06-26T09:21:49;13.63;;;3.30;;
51304;SDS011;37392;50.964;6.952;2023-06-26T09:24:16;11.98;;;4.07;;
51304;SDS011;37392;50.964;6.952;2023-06-26T09:26:42;12.27;;;3.83;;
51304;SDS011;37392;50.964;6.952;2023-06-26T09:29:08;14.60;;;4.05;;
51304;SDS011;37392;50.964;6.952;2023-06-26T09:31:37;10.05;;;3.35;;
51304;SDS011;37392;50.964;6.952;2023-06-26T09:34:04;14.77;;;4.03;;
51304;SDS011;37392;50.964;6.952;2023-06-26T09:36:30;17.83;;;3.85;;
51304;SDS011;37392;50.964;6.952;2023-06-26T09:39:05;14.68;;;3.50;;
51304;SDS011;37392;50.964;6.952;2023-06-26T09:41:35;14.35;;;3.75;;
51304;SDS011;37392;50.964;6.952;2023-06-26T09:44:03;10.25;;;3.63;;
51304;SDS011;37392;50.964;6.952;2023-06-26T09:46:30;9.95;;;3.40;;
51304;SDS011;37392;50.964;6.952;2023-06-26T09:49:06;14.48;;;3.53;;
51304;SDS011;37392;50.964;6.952;2023-06-26T09:51:34;14.75;;;4.05;;
51304;SDS011;37392;50.964;6.952;2023-06-26T09:54:02;14.63;;;4.37;;
51304;SDS011;37392;50.964;6.952;2023-06-26T09:56:29;24.98;;;3.83;;
51304;SDS011;37392;50.964;6.952;2023-06-26T09:58:56;7.03;;;3.17;;
51304;SDS011;37392;50.964;6.952;2023-06-26T10:01:27;16.85;;;3.85;;
51304;SDS011;37392;50.964;6.952;2023-06-26T10:03:53;15.57;;;3.22;;
51304;SDS011;37392;50.964;6.952;2023-06-26T10:06:32;12.30;;;3.45;;
51304;SDS011;37392;50.964;6.952;2023-06-26T10:09:01;10.33;;;3.33;;
51304;SDS011;37392;50.964;6.952;2023-06-26T10:11:36;9.77;;;3.03;;
51304;SDS011;37392;50.964;6.952;2023-06-26T10:14:10;13.60;;;3.22;;
51304;SDS011;37392;50.964;6.952;2023-06-26T10:16:36;12.55;;;2.75;;
51304;SDS011;37392;50.964;6.952;2023-06-26T10:19:05;8.13;;;3.28;;
51304;SDS011;37392;50.964;6.952;2023-06-26T10:21:34;7.95;;;3.58;;
51304;SDS011;37392;50.964;6.952;2023-06-26T10:24:03;12.32;;;3.25;;
51304;SDS011;37392;50.964;6.952;2023-06-26T10:26:31;7.88;;;2.47;;
51304;SDS011;37392;50.964;6.952;2023-06-26T10:29:03;14.15;;;3.88;;
51304;SDS011;37392;50.964;6.952;2023-06-26T10:31:31;11.80;;;3.17;;
51304;SDS011;37392;50.964;6.952;2023-06-26T10:33:58;7.38;;;2.60;;
51304;SDS011;37392;50.964;6.952;2023-06-26T10:36:27;11.55;;;3.85;;
51304;SDS011;37392;50.964;6.952;2023-06-26T10:38:56;11.10;;;2.80;;
51304;SDS011;37392;50.964;6.952;2023-06-26T10:41:24;11.68;;;3.13;;
51304;SDS011;37392;50.964;6.952;2023-06-26T10:46:28;7.97;;;2.97;;
51304;SDS011;37392;50.964;6.952;2023-06-26T10:48:58;11.85;;;3.13;;
51304;SDS011;37392;50.964;6.952;2023-06-26T10:51:26;11.90;;;2.95;;
51304;SDS011;37392;50.964;6.952;2023-06-26T10:53:56;8.18;;;2.65;;
51304;SDS011;37392;50.964;6.952;2023-06-26T10:56:40;11.52;;;2.88;;
51304;SDS011;37392;50.964;6.952;2023-06-26T10:59:19;6.93;;;2.40;;
51304;SDS011;37392;50.964;6.952;2023-06-26T11:04:46;11.85;;;2.75;;
51304;SDS011;37392;50.964;6.952;2023-06-26T11:07:20;8.93;;;2.15;;
51304;SDS011;37392;50.964;6.952;2023-06-26T11:09:59;10.30;;;2.70;;
51304;SDS011;37392;50.964;6.952;2023-06-26T11:15:08;7.50;;;2.40;;
51304;SDS011;37392;50.964;6.952;2023-06-26T11:17:38;10.25;;;2.67;;
51304;SDS011;37392;50.964;6.952;2023-06-26T11:20:05;13.52;;;3.15;;
51304;SDS011;37392;50.964;6.952;2023-06-26T11:22:37;5.60;;;1.98;;
51304;SDS011;37392;50.964;6.952;2023-06-26T11:25:07;15.43;;;2.88;;
51304;SDS011;37392;50.964;6.952;2023-06-26T11:27:40;17.38;;;3.83;;
51304;SDS011;37392;50.964;6.952;2023-06-26T11:30:07;20.88;;;4.13;;
51304;SDS011;37392;50.964;6.952;2023-06-26T11:32:38;9.88;;;3.30;;
51304;SDS011;37392;50.964;6.952;2023-06-26T11:35:05;11.65;;;2.80;;
51304;SDS011;37392;50.964;6.952;2023-06-26T11:37:31;16.95;;;3.40;;
51304;SDS011;37392;50.964;6.952;2023-06-26T11:39:57;16.63;;;3.08;;
51304;SDS011;37392;50.964;6.952;2023-06-26T11:42:23;24.35;;;3.30;;
51304;SDS011;37392;50.964;6.952;2023-06-26T11:44:50;8.13;;;2.72;;
51304;SDS011;37392;50.964;6.952;2023-06-26T11:47:17;12.38;;;2.75;;
51304;SDS011;37392;50.964;6.952;2023-06-26T11:49:46;5.20;;;2.75;;
51304;SDS011;37392;50.964;6.952;2023-06-26T11:52:14;9.20;;;2.78;;
51304;SDS011;37392;50.964;6.952;2023-06-26T11:54:41;15.55;;;2.40;;
51304;SDS011;37392;50.964;6.952;2023-06-26T11:57:08;11.68;;;4.43;;
51304;SDS011;37392;50.964;6.952;2023-06-26T12:02:04;8.18;;;2.38;;
51304;SDS011;37392;50.964;6.952;2023-06-26T12:04:32;10.25;;;2.67;;
51304;SDS011;37392;50.964;6.952;2023-06-26T12:07:00;9.40;;;2.60;;
51304;SDS011;37392;50.964;6.952;2023-06-26T12:09:30;12.35;;;2.13;;
51304;SDS011;37392;50.964;6.952;2023-06-26T12:11:58;6.35;;;2.47;;
51304;SDS011;37392;50.964;6.952;2023-06-26T12:14:24;6.68;;;2.75;;
51304;SDS011;37392;50.964;6.952;2023-06-26T12:16:53;9.57;;;2.25;;
51304;SDS011;37392;50.964;6.952;2023-06-26T12:19:23;13.57;;;2.88;;
51304;SDS011;37392;50.964;6.952;2023-06-26T12:21:53;12.68;;;2.72;;
51304;SDS011;37392;50.964;6.952;2023-06-26T12:24:21;11.88;;;3.20;;
51304;SDS011;37392;50.964;6.952;2023-06-26T12:26:52;8.10;;;2.42;;
51304;SDS011;37392;50.964;6.952;2023-06-26T12:29:20;9.98;;;2.40;;
51304;SDS011;37392;50.964;6.952;2023-06-26T12:31:51;8.00;;;2.33;;
51304;SDS011;37392;50.964;6.952;2023-06-26T12:34:25;8.43;;;2.30;;
51304;SDS011;37392;50.964;6.952;2023-06-26T12:37:04;5.95;;;2.08;;
51304;SDS011;37392;50.964;6.952;2023-06-26T12:42:22;16.25;;;3.00;;
51304;SDS011;37392;50.964;6.952;2023-06-26T12:44:52;14.90;;;2.83;;
51304;SDS011;37392;50.964;6.952;2023-06-26T12:47:30;16.57;;;2.70;;
51304;SDS011;37392;50.964;6.952;2023-06-26T12:49:56;16.38;;;2.83;;
51304;SDS011;37392;50.964;6.952;2023-06-26T12:52:22;11.98;;;2.05;;
51304;SDS011;37392;50.964;6.952;2023-06-26T12:54:51;30.42;;;4.43;;
51304;SDS011;37392;50.964;6.952;2023-06-26T12:57:19;33.22;;;4.13;;
51304;SDS011;37392;50.964;6.952;2023-06-26T12:59:45;28.55;;;4.95;;
51304;SDS011;37392;50.964;6.952;2023-06-26T13:02:10;56.30;;;12.48;;
51304;SDS011;37392;50.964;6.952;2023-06-26T13:04:37;48.58;;;7.88;;
51304;SDS011;37392;50.964;6.952;2023-06-26T13:07:08;27.75;;;5.05;;
51304;SDS011;37392;50.964;6.952;2023-06-26T13:09:34;20.95;;;4.57;;
51304;SDS011;37392;50.964;6.952;2023-06-26T13:12:01;19.80;;;3.45;;
51304;SDS011;37392;50.964;6.952;2023-06-26T13:14:29;17.88;;;2.97;;
51304;SDS011;37392;50.964;6.952;2023-06-26T13:16:55;14.95;;;3.65;;
51304;SDS011;37392;50.964;6.952;2023-06-26T13:19:21;26.70;;;3.42;;
51304;SDS011;37392;50.964;6.952;2023-06-26T13:21:46;28.45;;;3.28;;
51304;SDS011;37392;50.964;6.952;2023-06-26T13:24:12;22.15;;;2.65;;
51304;SDS011;37392;50.964;6.952;2023-06-26T13:26:38;14.85;;;2.75;;
51304;SDS011;37392;50.964;6.952;2023-06-26T13:29:04;18.40;;;2.92;;
51304;SDS011;37392;50.964;6.952;2023-06-26T13:31:30;15.93;;;3.40;;
51304;SDS011;37392;50.964;6.952;2023-06-26T13:33:59;20.80;;;3.20;;
51304;SDS011;37392;50.964;6.952;2023-06-26T13:36:28;17.92;;;2.72;;
51304;SDS011;37392;50.964;6.952;2023-06-26T13:38:54;15.95;;;2.80;;
51304;SDS011;37392;50.964;6.952;2023-06-26T13:41:22;16.42;;;2.30;;
51304;SDS011;37392;50.964;6.952;2023-06-26T13:43:49;17.88;;;2.33;;
51304;SDS011;37392;50.964;6.952;2023-06-26T13:46:15;14.43;;;1.98;;
51304;SDS011;37392;50.964;6.952;2023-06-26T13:48:41;17.08;;;1.98;;
51304;SDS011;37392;50.964;6.952;2023-06-26T13:51:06;17.27;;;2.75;;
51304;SDS011;37392;50.964;6.952;2023-06-26T13:53:32;10.15;;;2.38;;
51304;SDS011;37392;50.964;6.952;2023-06-26T13:55:57;10.18;;;2.67;;
51304;SDS011;37392;50.964;6.952;2023-06-26T13:58:23;6.88;;;1.52;;
51304;SDS011;37392;50.964;6.952;2023-06-26T14:00:51;12.05;;;2.58;;
51304;SDS011;37392;50.964;6.952;2023-06-26T14:03:18;14.50;;;3.53;;
51304;SDS011;37392;50.964;6.952;2023-06-26T14:05:44;7.60;;;2.03;;
51304;SDS011;37392;50.964;6.952;2023-06-26T14:08:09;13.10;;;2.08;;
51304;SDS011;37392;50.964;6.952;2023-06-26T14:10:35;11.55;;;1.85;;
51304;SDS011;37392;50.964;6.952;2023-06-26T14:13:02;10.05;;;1.85;;
51304;SDS011;37392;50.964;6.952;2023-06-26T14:15:29;7.18;;;2.13;;
51304;SDS011;37392;50.964;6.952;2023-06-26T14:17:57;14.15;;;2.17;;
51304;SDS011;37392;50.964;6.952;2023-06-26T14:20:23;14.98;;;1.92;;
51304;SDS011;37392;50.964;6.952;2023-06-26T14:22:49;10.32;;;1.63;;
51304;SDS011;37392;50.964;6.952;2023-06-26T14:25:15;4.10;;;1.83;;
51304;SDS011;37392;50.964;6.952;2023-06-26T14:27:42;10.88;;;2.80;;
51304;SDS011;37392;50.964;6.952;2023-06-26T14:30:10;12.07;;;2.15;;
51304;SDS011;37392;50.964;6.952;2023-06-26T14:32:36;14.27;;;2.00;;
51304;SDS011;37392;50.964;6.952;2023-06-26T14:35:08;8.15;;;2.15;;
51304;SDS011;37392;50.964;6.952;2023-06-26T14:37:35;14.98;;;2.35;;
51304;SDS011;37392;50.964;6.952;2023-06-26T14:40:01;9.68;;;2.30;;
51304;SDS011;37392;50.964;6.952;2023-06-26T14:42:27;13.70;;;2.15;;
51304;SDS011;37392;50.964;6.952;2023-06-26T14:44:53;14.95;;;1.98;;
51304;SDS011;37392;50.964;6.952;2023-06-26T14:47:18;13.30;;;2.15;;
51304;SDS011;37392;50.964;6.952;2023-06-26T14:49:44;22.80;;;2.08;;
51304;SDS011;37392;50.964;6.952;2023-06-26T14:52:10;11.10;;;2.17;;
51304;SDS011;37392;50.964;6.952;2023-06-26T14:54:36;19.35;;;4.00;;
51304;SDS011;37392;50.964;6.952;2023-06-26T14:57:02;22.10;;;2.10;;
51304;SDS011;37392;50.964;6.952;2023-06-26T14:59:29;13.45;;;1.85;;